Huvudsida
METAR-TAF:

METAR-TAF

Flygplatser :

Stockholm Skavsta Airport

Stockholm-Skavsta, Sverige

latitud: 58-47N, longitud: 016-55E, höjd: 43 m

Aktuellt väderrapport

Denna rapport gjordes för 12 minuter sedan, klockan 19:20 UTC
Vind 5 kt från syd/sydost
Temperatur 18°C
Fuktighet 56%
Tryck 1019 hPa
Sikt 10 km eller mer
Inga moln under 1 500 m eller inga cumulonimbus

METAR: ESKN 251920Z 15005KT CAVOK 18/09 Q1019

Tid: 21:32 (19:32 UTC)

Väderprognos

Denna rapport gjordes för 2 timmar och 2 minuter sedan, klockan 17:30 UTC
Prognos gäller från 25 kl. 18 UTC till 26 kl. 18 UTC
Vind 5 kt från nord
Sikt 10 km eller mer
Inga moln under 1 500 m eller inga cumulonimbus
Blir
från 26 kl. 10 UTC till 26 kl. 12 UTC
Vind 10 kt från syd/sydost

TAF: ESKN 251730Z 2518/2618 35005KT CAVOK BECMG 2610/2612 15010KT

Aktuella väderrapporter och prognoser från 4000 flygplatser (METAR- och TAF-rapporter).

De tillgängliga stationerna syns som gula och röda prickar på kartan.

För musen över prickarna för att se namnen på stationerna.

Klicka sedan för att få väderrapporter och prognoser.

För att ändra kartan: Klicka på de gröna knapparna med ett svart kors på för att zooma in; den gröna knappen med ett streck på för att zooma ut; eller på de gröna pilarna för angränsande kartor.


METAR-TAF: